createdAt,value
2022-09-27T00:01:22.963Z,95142.31
2022-09-27T00:03:49.375Z,95140.69
2022-09-27T00:06:22.349Z,95134.94
2022-09-27T00:08:48.720Z,95134.94
2022-09-27T00:11:23.188Z,95132.84
2022-09-27T00:13:49.532Z,95121.72
2022-09-27T00:16:15.966Z,95126.91
2022-09-27T00:18:42.637Z,95117.47
2022-09-27T00:21:12.201Z,95105.41
2022-09-27T00:23:39.504Z,95114.16
2022-09-27T00:26:07.846Z,95102.66
2022-09-27T00:28:34.575Z,95102.88
2022-09-27T00:31:01.079Z,95093.13
2022-09-27T00:33:28.399Z,95086.69
2022-09-27T00:35:54.992Z,95084.94
2022-09-27T00:38:21.383Z,95087.38
2022-09-27T00:40:48.281Z,95089.91
2022-09-27T00:43:21.654Z,95089.75
2022-09-27T00:46:01.792Z,95082.31
2022-09-27T00:48:32.332Z,95082.09
2022-09-27T00:51:03.873Z,95078.38
2022-09-27T00:53:35.172Z,95076.34
2022-09-27T00:56:05.294Z,95075.19
2022-09-27T00:58:39.809Z,95075.00
2022-09-27T01:01:10.630Z,95077.16
2022-09-27T01:03:44.191Z,95079.09
2022-09-27T01:06:11.579Z,95055.94
2022-09-27T01:08:38.002Z,95074.16
2022-09-27T01:11:31.155Z,95079.81
2022-09-27T01:14:34.487Z,95093.84
2022-09-27T01:17:30.072Z,95127.16
2022-09-27T01:20:33.292Z,95124.06
2022-09-27T01:23:11.856Z,95100.50
2022-09-27T01:26:05.998Z,95091.00
2022-09-27T01:28:52.907Z,95072.50
2022-09-27T01:31:33.970Z,95071.22
2022-09-27T01:34:05.706Z,95065.22
2022-09-27T01:37:01.152Z,95064.13
2022-09-27T01:39:50.640Z,95041.47
2022-09-27T01:42:23.034Z,95038.47
2022-09-27T01:45:06.256Z,95036.84
2022-09-27T01:47:39.429Z,95036.28
2022-09-27T01:50:12.081Z,95033.66
2022-09-27T01:52:46.345Z,95034.00
2022-09-27T01:55:16.635Z,95047.91
2022-09-27T01:57:49.132Z,95032.16
2022-09-27T02:00:15.800Z,95035.28
2022-09-27T02:02:52.268Z,95034.34
2022-09-27T02:05:20.178Z,95040.47
2022-09-27T02:08:00.813Z,95034.38
2022-09-27T02:10:33.739Z,95037.47
2022-09-27T02:13:22.721Z,95043.00
2022-09-27T02:16:41.766Z,95029.09
2022-09-27T02:19:18.608Z,95027.25
2022-09-27T02:21:59.934Z,95014.03
2022-09-27T02:24:46.646Z,95030.78
2022-09-27T02:27:20.738Z,95016.41
2022-09-27T02:29:58.635Z,95033.09
2022-09-27T02:32:24.975Z,95025.16
2022-09-27T02:34:52.992Z,95020.34
2022-09-27T02:37:19.402Z,95029.44
2022-09-27T02:39:45.893Z,95024.69
2022-09-27T02:42:12.567Z,95024.34
2022-09-27T02:44:40.771Z,95031.09
2022-09-27T02:47:26.722Z,95032.84
2022-09-27T02:50:40.921Z,95027.91
2022-09-27T02:53:22.048Z,95024.69
2022-09-27T02:56:11.985Z,95012.06
2022-09-27T02:59:12.092Z,95014.13
2022-09-27T03:01:56.919Z,95013.97
2022-09-27T03:04:44.043Z,95016.22
2022-09-27T03:07:11.140Z,95021.97
2022-09-27T03:09:47.933Z,95022.63
2022-09-27T03:12:20.657Z,95015.06
2022-09-27T03:14:47.046Z,95026.78
2022-09-27T03:17:13.452Z,95002.88
2022-09-27T03:19:39.900Z,95031.06
2022-09-27T03:22:06.757Z,95031.84
2022-09-27T03:24:33.117Z,95032.09
2022-09-27T03:26:59.474Z,95017.25
2022-09-27T03:29:25.833Z,95017.63
2022-09-27T03:31:52.203Z,95009.59
2022-09-27T03:34:18.539Z,95009.00
2022-09-27T03:36:45.361Z,95014.88
2022-09-27T03:39:11.721Z,95008.19
2022-09-27T03:41:38.220Z,95019.13
2022-09-27T03:44:04.615Z,94998.88
2022-09-27T03:46:31.150Z,94990.50
2022-09-27T03:48:57.544Z,94998.00
2022-09-27T03:51:23.969Z,95000.28
2022-09-27T03:53:51.156Z,94995.44
2022-09-27T03:56:17.547Z,95000.63
2022-09-27T03:58:44.548Z,94994.44
2022-09-27T04:01:11.289Z,94987.78
2022-09-27T04:03:38.126Z,94996.16
2022-09-27T04:06:04.867Z,94997.19
2022-09-27T04:08:31.350Z,94999.47
2022-09-27T04:10:58.116Z,94989.13
2022-09-27T04:13:24.532Z,94991.66
2022-09-27T04:15:52.439Z,94986.81
2022-09-27T04:18:18.983Z,94996.25
2022-09-27T04:20:45.461Z,94997.53
2022-09-27T04:23:11.929Z,94993.84
2022-09-27T04:25:39.819Z,94985.59
2022-09-27T04:28:06.335Z,94998.69
2022-09-27T04:30:32.711Z,94995.72
2022-09-27T04:32:59.092Z,94988.72
2022-09-27T04:35:44.191Z,94990.44
2022-09-27T04:38:10.990Z,94975.78
2022-09-27T04:40:38.010Z,95008.66
2022-09-27T04:43:04.534Z,95013.94
2022-09-27T04:45:31.483Z,95014.31
2022-09-27T04:47:57.926Z,95013.28
2022-09-27T04:50:24.327Z,95021.44
2022-09-27T04:52:54.630Z,95019.22
2022-09-27T04:55:22.062Z,95017.66
2022-09-27T04:57:49.154Z,95026.94
2022-09-27T05:00:16.078Z,95029.94
2022-09-27T05:02:44.064Z,95051.75
2022-09-27T05:05:11.037Z,95048.09
2022-09-27T05:07:38.250Z,95045.56
2022-09-27T05:10:05.654Z,95061.25
2022-09-27T05:12:32.076Z,95050.69
2022-09-27T05:14:58.411Z,95059.19
2022-09-27T05:17:24.785Z,95060.59
2022-09-27T05:19:51.189Z,95071.97
2022-09-27T05:22:17.646Z,95080.53
2022-09-27T05:24:43.990Z,95085.25
2022-09-27T05:27:13.351Z,95090.53
2022-09-27T05:29:39.690Z,95090.31
2022-09-27T05:32:06.082Z,95102.59
2022-09-27T05:34:32.657Z,95105.69
2022-09-27T05:36:59.410Z,95098.34
2022-09-27T05:39:25.854Z,95102.59
2022-09-27T05:41:54.627Z,95118.88
2022-09-27T05:44:20.972Z,95109.25
2022-09-27T05:46:47.334Z,95118.88
2022-09-27T05:49:13.692Z,95119.91
2022-09-27T05:51:40.024Z,95128.88
2022-09-27T05:54:06.413Z,95125.31
2022-09-27T05:56:32.972Z,95130.56
2022-09-27T05:58:59.915Z,95141.91
2022-09-27T06:01:28.119Z,95144.34
2022-09-27T06:03:55.148Z,95140.44
2022-09-27T06:06:23.581Z,95142.63
2022-09-27T06:08:50.011Z,95144.56
2022-09-27T06:11:16.387Z,95144.34
2022-09-27T06:13:42.926Z,95145.84
2022-09-27T06:16:11.380Z,95152.41
2022-09-27T06:18:38.390Z,95147.69
2022-09-27T06:21:06.169Z,95153.75
2022-09-27T06:23:32.953Z,95159.84
2022-09-27T06:26:05.179Z,95151.13
2022-09-27T06:28:35.496Z,95154.78
2022-09-27T06:31:02.353Z,95160.75
2022-09-27T06:33:28.915Z,95165.81
2022-09-27T06:35:55.304Z,95170.38
2022-09-27T06:38:22.597Z,95169.59
2022-09-27T06:40:49.899Z,95184.63
2022-09-27T06:43:18.366Z,95176.13
2022-09-27T06:45:44.789Z,95177.50
2022-09-27T06:48:13.523Z,95157.91
2022-09-27T06:50:42.834Z,95182.09
2022-09-27T06:53:11.837Z,95184.50
2022-09-27T06:55:39.380Z,95186.53
2022-09-27T06:58:25.374Z,95183.56
2022-09-27T07:00:53.299Z,95179.91
2022-09-27T07:03:22.943Z,95184.50
2022-09-27T07:06:00.716Z,95167.75
2022-09-27T07:08:28.750Z,95197.25
2022-09-27T07:10:56.810Z,95200.00
2022-09-27T07:13:23.306Z,95191.59
2022-09-27T07:15:49.635Z,95200.81
2022-09-27T07:18:15.976Z,95202.53
2022-09-27T07:20:42.583Z,95205.84
2022-09-27T07:23:10.842Z,95213.03
2022-09-27T07:25:37.214Z,95213.97
2022-09-27T07:28:06.665Z,95218.44
2022-09-27T07:30:34.151Z,95217.22
2022-09-27T07:33:02.334Z,95219.41
2022-09-27T07:35:30.549Z,95230.63
2022-09-27T07:37:58.843Z,95228.03
2022-09-27T07:40:26.874Z,95231.03
2022-09-27T07:42:58.083Z,95240.91
2022-09-27T07:45:25.584Z,95237.81
2022-09-27T07:47:52.392Z,95234.34
2022-09-27T07:50:19.479Z,95239.75
2022-09-27T07:52:47.633Z,95234.81
2022-09-27T07:55:15.002Z,95230.44
2022-09-27T07:57:41.619Z,95232.28
2022-09-27T08:00:13.230Z,95230.22
2022-09-27T08:02:39.713Z,95231.13
2022-09-27T08:05:06.733Z,95235.16
2022-09-27T08:07:33.159Z,95238.00
2022-09-27T08:09:59.676Z,95241.94
2022-09-27T08:12:26.046Z,95240.56
2022-09-27T08:14:52.757Z,95243.56
2022-09-27T08:17:22.270Z,95225.34
2022-09-27T08:19:49.827Z,95182.41
2022-09-27T08:22:16.271Z,95156.19
2022-09-27T08:24:42.802Z,95173.75
2022-09-27T08:27:11.815Z,95274.41
2022-09-27T08:29:41.875Z,95357.91
2022-09-27T08:32:10.063Z,95368.13
2022-09-27T08:34:36.854Z,95362.47
2022-09-27T08:37:04.176Z,95318.94
2022-09-27T08:39:31.361Z,95302.88
2022-09-27T08:42:39.873Z,95346.78
2022-09-27T08:45:28.686Z,95396.31
2022-09-27T08:48:00.423Z,95448.66
2022-09-27T08:50:39.982Z,95458.13
2022-09-27T08:53:30.996Z,95463.69
2022-09-27T08:55:58.942Z,95429.31
2022-09-27T08:58:28.068Z,95456.06
2022-09-27T09:01:00.694Z,95500.25
2022-09-27T09:03:32.914Z,95561.88
2022-09-27T09:06:10.873Z,95653.94
2022-09-27T09:09:03.160Z,95817.06
2022-09-27T09:12:18.871Z,95999.63
2022-09-27T09:15:20.221Z,96049.38
2022-09-27T09:18:02.816Z,96075.13
2022-09-27T09:20:54.696Z,96122.75
2022-09-27T09:23:23.709Z,96132.72
2022-09-27T09:25:59.392Z,96145.38
2022-09-27T09:28:41.176Z,96136.03
2022-09-27T09:31:42.494Z,96116.72
2022-09-27T09:34:27.813Z,96179.19
2022-09-27T09:37:00.965Z,96172.28
2022-09-27T09:39:43.805Z,96210.31
2022-09-27T09:42:17.045Z,96152.41
2022-09-27T09:44:54.135Z,96118.13
2022-09-27T09:47:35.829Z,96140.63
2022-09-27T09:50:12.730Z,96119.88
2022-09-27T09:52:54.288Z,96107.78
2022-09-27T09:55:28.471Z,96106.59
2022-09-27T09:58:20.278Z,96099.16
2022-09-27T10:00:48.323Z,96138.63
2022-09-27T10:03:14.718Z,96165.19
2022-09-27T10:05:44.231Z,96205.47
2022-09-27T10:08:18.791Z,96254.91
2022-09-27T10:10:45.204Z,96279.28
2022-09-27T10:13:20.752Z,96310.72
2022-09-27T10:15:57.103Z,96335.22
2022-09-27T10:18:24.128Z,96518.16
2022-09-27T10:20:56.814Z,96653.19
2022-09-27T10:23:25.181Z,96695.50
2022-09-27T10:25:55.337Z,96799.28
2022-09-27T10:28:42.063Z,96808.38
2022-09-27T10:31:14.133Z,96773.16
2022-09-27T10:33:55.077Z,96798.44
2022-09-27T10:36:30.312Z,96791.75
2022-09-27T10:38:59.122Z,96806.63
2022-09-27T10:41:32.808Z,96837.38
2022-09-27T10:44:20.324Z,96840.78
2022-09-27T10:46:53.275Z,96841.28
2022-09-27T10:49:41.633Z,96869.66
2022-09-27T10:52:16.137Z,96872.63
2022-09-27T10:54:52.659Z,96930.09
2022-09-27T10:57:27.078Z,96909.25
2022-09-27T10:59:58.051Z,96931.88
2022-09-27T11:02:29.424Z,96983.44
2022-09-27T11:05:31.628Z,96938.38
2022-09-27T11:08:18.861Z,97006.31
2022-09-27T11:11:01.468Z,96988.28
2022-09-27T11:13:32.834Z,96987.00
2022-09-27T11:16:17.797Z,96992.25
2022-09-27T11:19:15.720Z,96998.16
2022-09-27T11:22:08.349Z,97029.34
2022-09-27T11:24:54.674Z,97017.66
2022-09-27T11:27:41.383Z,96992.25
2022-09-27T11:30:12.750Z,96987.41
2022-09-27T11:33:16.505Z,96978.94
2022-09-27T11:35:51.816Z,96983.19
2022-09-27T11:38:57.153Z,96950.84
2022-09-27T11:42:08.722Z,96952.16
2022-09-27T11:45:07.770Z,97000.44
2022-09-27T11:48:04.483Z,97028.75
2022-09-27T11:50:56.712Z,97009.94
2022-09-27T11:53:50.212Z,96984.25
2022-09-27T11:56:55.750Z,96968.00
2022-09-27T11:59:55.096Z,97002.47
2022-09-27T12:02:55.990Z,97014.00
2022-09-27T12:05:55.222Z,96987.66
2022-09-27T12:08:31.943Z,96974.50
2022-09-27T12:11:14.487Z,96963.97
2022-09-27T12:13:49.950Z,96976.31
2022-09-27T12:16:17.751Z,96991.69
2022-09-27T12:18:49.244Z,97007.47
2022-09-27T12:21:19.659Z,97014.75
2022-09-27T12:23:59.923Z,97016.47
2022-09-27T12:26:36.108Z,97022.94
2022-09-27T12:29:11.206Z,97019.97
2022-09-27T12:32:01.616Z,97013.50
2022-09-27T12:34:33.006Z,97007.78
2022-09-27T12:37:05.345Z,97020.66
2022-09-27T12:40:04.125Z,97031.59
2022-09-27T12:45:15.026Z,97035.06
2022-09-27T12:47:58.179Z,97035.94
2022-09-27T12:50:37.705Z,97038.44
2022-09-27T12:53:13.410Z,97033.97
2022-09-27T12:56:24.970Z,97038.09
2022-09-27T12:59:01.239Z,97033.84
2022-09-27T13:01:34.347Z,97027.06
2022-09-27T13:04:19.247Z,97022.34
2022-09-27T13:06:53.309Z,97016.16
2022-09-27T13:09:45.997Z,97004.31
2022-09-27T13:12:27.812Z,97006.84
2022-09-27T13:15:00.029Z,97003.03
2022-09-27T13:17:40.806Z,97024.19
2022-09-27T13:20:32.602Z,97036.34
2022-09-27T13:23:00.334Z,97012.91
2022-09-27T13:25:55.874Z,97012.09
2022-09-27T13:28:27.869Z,97029.88
2022-09-27T13:30:55.689Z,97017.44
2022-09-27T13:33:49.367Z,97015.00
2022-09-27T13:36:29.606Z,97008.41
2022-09-27T13:39:06.652Z,97006.38
2022-09-27T13:41:53.449Z,97017.22
2022-09-27T13:44:44.177Z,97009.13
2022-09-27T13:47:33.064Z,96996.56
2022-09-27T13:50:47.581Z,96995.50
2022-09-27T13:53:28.521Z,96984.69
2022-09-27T13:55:54.967Z,96987.63
2022-09-27T13:58:46.396Z,96978.00
2022-09-27T14:01:35.447Z,96987.81
2022-09-27T14:04:25.616Z,96969.59
2022-09-27T14:07:01.172Z,96920.84
2022-09-27T14:09:32.450Z,96899.38
2022-09-27T14:12:01.515Z,96912.47
2022-09-27T14:14:31.446Z,96902.47
2022-09-27T14:17:00.290Z,96905.09
2022-09-27T14:19:27.553Z,96896.56
2022-09-27T14:21:54.097Z,96892.47
2022-09-27T14:24:21.775Z,96898.72
2022-09-27T14:26:49.725Z,96889.81
2022-09-27T14:29:21.991Z,96885.09
2022-09-27T14:32:04.005Z,96869.41
2022-09-27T14:34:30.357Z,96831.25
2022-09-27T14:37:15.256Z,96813.72
2022-09-27T14:39:41.983Z,96808.84
2022-09-27T14:42:21.164Z,96832.91
2022-09-27T14:44:48.939Z,96863.84
2022-09-27T14:47:24.742Z,96856.53
2022-09-27T14:50:05.683Z,96829.34
2022-09-27T14:52:35.331Z,96777.69
2022-09-27T14:55:10.066Z,96725.41
2022-09-27T14:57:37.279Z,96670.53
2022-09-27T15:00:17.088Z,96604.34
2022-09-27T15:02:44.188Z,96566.63
2022-09-27T15:05:16.431Z,96562.97
2022-09-27T15:07:45.036Z,96571.91
2022-09-27T15:10:18.181Z,96565.41
2022-09-27T15:12:52.041Z,96551.22
2022-09-27T15:15:23.893Z,96542.25
2022-09-27T15:17:50.478Z,96533.88
2022-09-27T15:20:34.648Z,96520.06
2022-09-27T15:23:04.319Z,96503.97
2022-09-27T15:25:42.472Z,96473.44
2022-09-27T15:28:11.656Z,96470.00
2022-09-27T15:30:41.681Z,96419.75
2022-09-27T15:33:20.368Z,96404.91
2022-09-27T15:35:50.915Z,96397.38
2022-09-27T15:38:26.923Z,96376.41
2022-09-27T15:40:53.246Z,96343.09
2022-09-27T15:43:30.871Z,96325.81
2022-09-27T15:46:02.043Z,96281.06
2022-09-27T15:48:30.364Z,96268.31
2022-09-27T15:50:56.737Z,96253.25
2022-09-27T15:53:35.240Z,96220.50
2022-09-27T15:56:09.558Z,96186.16
2022-09-27T15:58:36.778Z,96173.34
2022-09-27T16:01:08.211Z,96174.16
2022-09-27T16:03:34.691Z,96170.94
2022-09-27T16:06:02.623Z,96160.31
2022-09-27T16:08:29.162Z,96167.81
2022-09-27T16:10:58.118Z,96174.94
2022-09-27T16:13:28.875Z,96196.50
2022-09-27T16:15:57.059Z,96202.19
2022-09-27T16:18:27.038Z,96244.50
2022-09-27T16:20:57.689Z,96259.31
2022-09-27T16:23:24.078Z,96289.63
2022-09-27T16:25:53.117Z,96314.81
2022-09-27T16:28:19.449Z,96346.94
2022-09-27T16:30:46.119Z,96356.31
2022-09-27T16:33:12.452Z,96379.72
2022-09-27T16:35:41.079Z,96417.72
2022-09-27T16:38:07.594Z,96469.09
2022-09-27T16:40:34.039Z,96494.75
2022-09-27T16:43:00.521Z,96523.19
2022-09-27T16:45:34.067Z,96516.09
2022-09-27T16:48:01.152Z,96506.34
2022-09-27T16:50:46.472Z,96505.53
2022-09-27T16:53:13.631Z,96500.25
2022-09-27T16:55:39.998Z,96522.09
2022-09-27T16:58:08.237Z,96498.09
2022-09-27T17:00:34.687Z,96507.06
2022-09-27T17:03:01.085Z,96509.47
2022-09-27T17:05:27.465Z,96508.06
2022-09-27T17:07:54.148Z,96520.38
2022-09-27T17:10:21.615Z,96528.13
2022-09-27T17:12:48.370Z,96538.84
2022-09-27T17:15:16.349Z,96540.69
2022-09-27T17:17:45.042Z,96532.53
2022-09-27T17:20:11.566Z,96538.84
2022-09-27T17:22:37.945Z,96539.84
2022-09-27T17:25:04.581Z,96530.94
2022-09-27T17:27:31.052Z,96532.91
2022-09-27T17:29:57.471Z,96529.22
2022-09-27T17:32:24.548Z,96532.25
2022-09-27T17:34:52.240Z,96512.78
2022-09-27T17:37:18.777Z,96495.50
2022-09-27T17:39:45.198Z,96488.22
2022-09-27T17:42:12.645Z,96486.97
2022-09-27T17:44:39.302Z,96465.03
2022-09-27T17:47:24.625Z,96414.81
2022-09-27T17:50:09.862Z,96424.81
2022-09-27T17:52:36.326Z,96368.28
2022-09-27T17:55:03.390Z,96348.38
2022-09-27T17:57:30.329Z,96299.03
2022-09-27T17:59:57.946Z,96261.81
2022-09-27T18:02:25.200Z,96231.41
2022-09-27T18:04:51.683Z,96181.03
2022-09-27T18:07:19.763Z,96096.25
2022-09-27T18:09:46.184Z,95924.44
2022-09-27T18:12:13.924Z,95867.28
2022-09-27T18:14:40.426Z,95771.81
2022-09-27T18:17:06.808Z,95746.06
2022-09-27T18:19:33.189Z,95731.50
2022-09-27T18:22:00.724Z,95691.56
2022-09-27T18:24:27.158Z,95622.31
2022-09-27T18:26:55.757Z,95592.31
2022-09-27T18:29:22.211Z,95351.41
2022-09-27T18:31:49.427Z,95351.22
2022-09-27T18:34:19.609Z,95360.13
2022-09-27T18:36:46.737Z,95451.31
2022-09-27T18:39:18.092Z,95465.13
2022-09-27T18:41:45.598Z,95470.00
2022-09-27T18:44:14.148Z,95487.59
2022-09-27T18:46:41.196Z,95482.38
2022-09-27T18:49:10.789Z,95493.47
2022-09-27T18:51:41.140Z,95484.88
2022-09-27T18:54:14.238Z,95486.47
2022-09-27T18:56:41.173Z,95480.78
2022-09-27T18:59:09.616Z,95485.63
2022-09-27T19:01:45.067Z,95478.75
2022-09-27T19:04:14.822Z,95477.16
2022-09-27T19:06:41.892Z,95476.75
2022-09-27T19:09:10.751Z,95484.00
2022-09-27T19:11:37.348Z,95482.78
2022-09-27T19:14:03.781Z,95480.38
2022-09-27T19:16:30.579Z,95485.03
2022-09-27T19:18:57.072Z,95489.09
2022-09-27T19:21:28.955Z,95487.69
2022-09-27T19:23:56.305Z,95489.28
2022-09-27T19:26:25.209Z,95495.75
2022-09-27T19:28:52.292Z,95494.13
2022-09-27T19:31:21.946Z,95499.81
2022-09-27T19:33:48.500Z,95494.56
2022-09-27T19:36:16.959Z,95499.03
2022-09-27T19:38:43.768Z,95496.59
2022-09-27T19:41:12.621Z,95494.59
2022-09-27T19:43:39.114Z,95506.31
2022-09-27T19:46:15.924Z,95510.00
2022-09-27T19:48:43.828Z,95510.81
2022-09-27T19:51:15.160Z,95511.66
2022-09-27T19:53:41.564Z,95512.06
2022-09-27T19:56:09.945Z,95515.72
2022-09-27T19:58:38.008Z,95515.94
2022-09-27T20:01:08.518Z,95517.75
2022-09-27T20:03:37.471Z,95525.06
2022-09-27T20:06:07.238Z,95525.88
2022-09-27T20:08:34.122Z,95530.34
2022-09-27T20:11:06.385Z,95520.22
2022-09-27T20:13:34.708Z,95532.78
2022-09-27T20:16:19.413Z,95529.19
2022-09-27T20:18:47.882Z,95538.31
2022-09-27T20:21:15.173Z,95536.06
2022-09-27T20:23:42.201Z,95542.13
2022-09-27T20:26:11.275Z,95533.84
2022-09-27T20:28:42.101Z,95549.25
2022-09-27T20:31:10.115Z,95547.00
2022-09-27T20:33:43.788Z,95549.47
2022-09-27T20:36:31.672Z,95564.84
2022-09-27T20:39:05.906Z,95553.09
2022-09-27T20:41:35.645Z,95545.84
2022-09-27T20:44:05.079Z,95541.38
2022-09-27T20:46:32.548Z,95546.66
2022-09-27T20:49:03.077Z,95551.16
2022-09-27T20:51:34.125Z,95539.81
2022-09-27T20:54:03.018Z,95575.84
2022-09-27T20:56:32.276Z,95585.38
2022-09-27T20:59:00.855Z,95566.94
2022-09-27T21:01:28.626Z,95568.53
2022-09-27T21:03:56.733Z,95572.22
2022-09-27T21:06:23.854Z,95570.41
2022-09-27T21:08:51.461Z,95566.34
2022-09-27T21:11:18.978Z,95568.78
2022-09-27T21:13:47.109Z,95559.28
2022-09-27T21:16:16.027Z,95565.31
2022-09-27T21:18:43.195Z,95561.28
2022-09-27T21:21:11.846Z,95565.31
2022-09-27T21:23:44.287Z,95560.09
2022-09-27T21:26:16.691Z,95569.41
2022-09-27T21:28:54.683Z,95569.00
2022-09-27T21:31:30.036Z,95560.69
2022-09-27T21:33:59.320Z,95567.34
2022-09-27T21:36:28.532Z,95561.69
2022-09-27T21:38:55.705Z,95562.91
2022-09-27T21:41:22.758Z,95565.94
2022-09-27T21:43:49.514Z,95571.81
2022-09-27T21:46:22.274Z,95574.25
2022-09-27T21:48:51.583Z,95563.72
2022-09-27T21:51:20.541Z,95562.69
2022-09-27T21:53:52.183Z,95568.34
2022-09-27T21:56:19.659Z,95568.94
2022-09-27T21:58:46.153Z,95570.59
2022-09-27T22:01:15.408Z,95565.94
2022-09-27T22:03:43.596Z,95561.50
2022-09-27T22:06:13.075Z,95560.50
2022-09-27T22:08:39.533Z,95567.41
2022-09-27T22:11:06.837Z,95570.44
2022-09-27T22:13:33.635Z,95570.66
2022-09-27T22:16:05.430Z,95567.44
2022-09-27T22:18:35.235Z,95565.81
2022-09-27T22:21:03.800Z,95569.88
2022-09-27T22:23:31.150Z,95560.56
2022-09-27T22:25:58.511Z,95558.38
2022-09-27T22:28:25.810Z,95572.09
2022-09-27T22:30:53.038Z,95574.34
2022-09-27T22:33:19.519Z,95567.69
2022-09-27T22:35:47.483Z,95566.66
2022-09-27T22:38:14.566Z,95551.91
2022-09-27T22:40:41.861Z,95554.13
2022-09-27T22:43:08.514Z,95550.06
2022-09-27T22:45:34.839Z,95542.38
2022-09-27T22:48:01.444Z,95542.38
2022-09-27T22:50:27.791Z,95542.56
2022-09-27T22:52:54.194Z,95540.34
2022-09-27T22:55:20.531Z,95546.81
2022-09-27T22:57:46.902Z,95539.13
2022-09-27T23:00:13.835Z,95541.16
2022-09-27T23:02:40.199Z,95538.31
2022-09-27T23:05:07.085Z,95528.19
2022-09-27T23:07:33.447Z,95529.78
2022-09-27T23:09:59.795Z,95529.41
2022-09-27T23:12:26.152Z,95535.72
2022-09-27T23:14:52.636Z,95523.16
2022-09-27T23:17:20.328Z,95516.25
2022-09-27T23:19:46.667Z,95515.84
2022-09-27T23:22:13.025Z,95506.78
2022-09-27T23:24:39.346Z,95506.38
2022-09-27T23:27:24.237Z,95506.78
2022-09-27T23:29:50.778Z,95499.06
2022-09-27T23:32:17.138Z,95505.16
2022-09-27T23:34:43.476Z,95490.59
2022-09-27T23:37:09.868Z,95495.03
2022-09-27T23:39:36.280Z,95497.44
2022-09-27T23:42:03.234Z,95490.13
2022-09-27T23:44:29.655Z,95484.06
2022-09-27T23:47:00.173Z,95478.22
2022-09-27T23:49:27.412Z,95479.44
2022-09-27T23:51:55.595Z,95474.75
2022-09-27T23:54:21.970Z,95468.50
2022-09-27T23:56:49.633Z,95465.28
2022-09-27T23:59:16.966Z,95463.47
